sensor_id;sensor_type;location;lat;lon;timestamp;temperature;humidity
4103;DHT22;2065;49.790;9.620;2023-04-25T00:01:55;13.40;60.20
4103;DHT22;2065;49.790;9.620;2023-04-25T00:04:22;13.60;59.70
4103;DHT22;2065;49.790;9.620;2023-04-25T00:06:49;13.80;59.40
4103;DHT22;2065;49.790;9.620;2023-04-25T00:09:17;13.90;59.90
4103;DHT22;2065;49.790;9.620;2023-04-25T00:11:45;14.00;59.60
4103;DHT22;2065;49.790;9.620;2023-04-25T00:14:13;14.10;59.10
4103;DHT22;2065;49.790;9.620;2023-04-25T00:16:40;14.20;59.60
4103;DHT22;2065;49.790;9.620;2023-04-25T00:19:09;14.10;59.90
4103;DHT22;2065;49.790;9.620;2023-04-25T00:21:37;14.30;59.60
4103;DHT22;2065;49.790;9.620;2023-04-25T00:24:06;14.50;59.60
4103;DHT22;2065;49.790;9.620;2023-04-25T00:26:34;14.50;59.60
4103;DHT22;2065;49.790;9.620;2023-04-25T00:29:01;14.50;59.80
4103;DHT22;2065;49.790;9.620;2023-04-25T00:31:29;14.60;59.70
4103;DHT22;2065;49.790;9.620;2023-04-25T00:33:56;14.60;58.80
4103;DHT22;2065;49.790;9.620;2023-04-25T00:36:23;14.40;58.40
4103;DHT22;2065;49.790;9.620;2023-04-25T00:38:52;14.10;58.90
4103;DHT22;2065;49.790;9.620;2023-04-25T00:41:20;13.90;59.40
4103;DHT22;2065;49.790;9.620;2023-04-25T00:43:48;14.00;60.10
4103;DHT22;2065;49.790;9.620;2023-04-25T00:46:15;14.10;60.20
4103;DHT22;2065;49.790;9.620;2023-04-25T00:48:43;14.30;60.30
4103;DHT22;2065;49.790;9.620;2023-04-25T00:51:15;14.30;60.40
4103;DHT22;2065;49.790;9.620;2023-04-25T00:53:43;14.30;59.90
4103;DHT22;2065;49.790;9.620;2023-04-25T00:56:10;14.30;59.40
4103;DHT22;2065;49.790;9.620;2023-04-25T00:58:37;13.90;59.20
4103;DHT22;2065;49.790;9.620;2023-04-25T01:01:06;13.60;59.40
4103;DHT22;2065;49.790;9.620;2023-04-25T01:03:34;13.20;60.70
4103;DHT22;2065;49.790;9.620;2023-04-25T01:06:08;13.00;61.80
4103;DHT22;2065;49.790;9.620;2023-04-25T01:08:37;12.90;62.40
4103;DHT22;2065;49.790;9.620;2023-04-25T01:11:05;13.00;63.20
4103;DHT22;2065;49.790;9.620;2023-04-25T01:13:32;13.10;62.60
4103;DHT22;2065;49.790;9.620;2023-04-25T01:16:00;13.10;62.50
4103;DHT22;2065;49.790;9.620;2023-04-25T01:18:28;13.20;61.70
4103;DHT22;2065;49.790;9.620;2023-04-25T01:20:55;12.90;62.10
4103;DHT22;2065;49.790;9.620;2023-04-25T01:23:23;13.00;62.40
4103;DHT22;2065;49.790;9.620;2023-04-25T01:25:51;13.00;61.90
4103;DHT22;2065;49.790;9.620;2023-04-25T01:28:19;13.00;62.70
4103;DHT22;2065;49.790;9.620;2023-04-25T01:30:47;13.10;61.80
4103;DHT22;2065;49.790;9.620;2023-04-25T01:33:15;13.10;61.50
4103;DHT22;2065;49.790;9.620;2023-04-25T01:35:43;13.10;61.10
4103;DHT22;2065;49.790;9.620;2023-04-25T01:38:12;13.20;61.40
4103;DHT22;2065;49.790;9.620;2023-04-25T01:40:41;13.20;61.10
4103;DHT22;2065;49.790;9.620;2023-04-25T01:43:08;13.10;60.90
4103;DHT22;2065;49.790;9.620;2023-04-25T01:45:37;13.00;61.30
4103;DHT22;2065;49.790;9.620;2023-04-25T01:48:05;13.10;61.70
4103;DHT22;2065;49.790;9.620;2023-04-25T01:50:33;13.00;61.30
4103;DHT22;2065;49.790;9.620;2023-04-25T01:53:00;12.80;61.60
4103;DHT22;2065;49.790;9.620;2023-04-25T01:55:28;13.00;62.10
4103;DHT22;2065;49.790;9.620;2023-04-25T01:58:02;13.00;62.00
4103;DHT22;2065;49.790;9.620;2023-04-25T02:00:54;13.00;61.90
4103;DHT22;2065;49.790;9.620;2023-04-25T02:03:23;13.10;61.50
4103;DHT22;2065;49.790;9.620;2023-04-25T02:05:51;13.10;61.40
4103;DHT22;2065;49.790;9.620;2023-04-25T02:08:19;13.10;61.80
4103;DHT22;2065;49.790;9.620;2023-04-25T02:10:46;13.30;61.30
4103;DHT22;2065;49.790;9.620;2023-04-25T02:13:20;13.40;60.40
4103;DHT22;2065;49.790;9.620;2023-04-25T02:15:59;13.30;60.70
4103;DHT22;2065;49.790;9.620;2023-04-25T02:18:27;13.50;59.80
4103;DHT22;2065;49.790;9.620;2023-04-25T02:20:54;13.50;60.80
4103;DHT22;2065;49.790;9.620;2023-04-25T02:23:21;13.60;59.70
4103;DHT22;2065;49.790;9.620;2023-04-25T02:25:48;13.70;59.70
4103;DHT22;2065;49.790;9.620;2023-04-25T02:28:15;13.60;59.40
4103;DHT22;2065;49.790;9.620;2023-04-25T02:30:44;13.60;59.30
4103;DHT22;2065;49.790;9.620;2023-04-25T02:33:11;13.40;59.30
4103;DHT22;2065;49.790;9.620;2023-04-25T02:35:39;13.40;59.50
4103;DHT22;2065;49.790;9.620;2023-04-25T02:38:06;13.50;59.70
4103;DHT22;2065;49.790;9.620;2023-04-25T02:40:33;13.60;59.80
4103;DHT22;2065;49.790;9.620;2023-04-25T02:43:00;13.60;59.50
4103;DHT22;2065;49.790;9.620;2023-04-25T02:45:27;13.60;59.50
4103;DHT22;2065;49.790;9.620;2023-04-25T02:47:57;13.40;59.00
4103;DHT22;2065;49.790;9.620;2023-04-25T02:50:24;13.40;59.60
4103;DHT22;2065;49.790;9.620;2023-04-25T02:52:51;13.40;59.30
4103;DHT22;2065;49.790;9.620;2023-04-25T02:55:24;13.30;59.30
4103;DHT22;2065;49.790;9.620;2023-04-25T02:57:51;13.30;58.80
4103;DHT22;2065;49.790;9.620;2023-04-25T03:00:32;13.10;59.40
4103;DHT22;2065;49.790;9.620;2023-04-25T03:03:00;12.90;60.20
4103;DHT22;2065;49.790;9.620;2023-04-25T03:05:27;12.80;60.80
4103;DHT22;2065;49.790;9.620;2023-04-25T03:07:54;12.80;60.10
4103;DHT22;2065;49.790;9.620;2023-04-25T03:10:21;12.90;60.10
4103;DHT22;2065;49.790;9.620;2023-04-25T03:12:49;12.90;59.50
4103;DHT22;2065;49.790;9.620;2023-04-25T03:15:16;13.00;59.90
4103;DHT22;2065;49.790;9.620;2023-04-25T03:17:43;13.10;59.40
4103;DHT22;2065;49.790;9.620;2023-04-25T03:20:12;13.10;59.70
4103;DHT22;2065;49.790;9.620;2023-04-25T03:22:39;13.30;59.70
4103;DHT22;2065;49.790;9.620;2023-04-25T03:25:07;13.30;59.20
4103;DHT22;2065;49.790;9.620;2023-04-25T03:27:34;13.20;59.30
4103;DHT22;2065;49.790;9.620;2023-04-25T03:30:02;13.20;59.10
4103;DHT22;2065;49.790;9.620;2023-04-25T03:32:30;13.40;59.10
4103;DHT22;2065;49.790;9.620;2023-04-25T03:34:57;13.30;59.40
4103;DHT22;2065;49.790;9.620;2023-04-25T03:37:28;13.20;59.20
4103;DHT22;2065;49.790;9.620;2023-04-25T03:39:55;13.20;59.30
4103;DHT22;2065;49.790;9.620;2023-04-25T03:42:25;13.20;59.50
4103;DHT22;2065;49.790;9.620;2023-04-25T03:44:52;13.40;58.90
4103;DHT22;2065;49.790;9.620;2023-04-25T03:47:20;13.30;59.50
4103;DHT22;2065;49.790;9.620;2023-04-25T03:49:49;13.20;59.20
4103;DHT22;2065;49.790;9.620;2023-04-25T03:52:19;13.30;59.00
4103;DHT22;2065;49.790;9.620;2023-04-25T03:54:48;13.40;59.10
4103;DHT22;2065;49.790;9.620;2023-04-25T03:57:18;13.30;59.40
4103;DHT22;2065;49.790;9.620;2023-04-25T03:59:45;13.20;60.10
4103;DHT22;2065;49.790;9.620;2023-04-25T04:02:14;13.00;59.80
4103;DHT22;2065;49.790;9.620;2023-04-25T04:04:41;13.20;60.20
4103;DHT22;2065;49.790;9.620;2023-04-25T04:07:10;13.20;60.00
4103;DHT22;2065;49.790;9.620;2023-04-25T04:09:39;13.20;60.30
4103;DHT22;2065;49.790;9.620;2023-04-25T04:12:13;13.10;60.70
4103;DHT22;2065;49.790;9.620;2023-04-25T04:14:41;13.10;60.70
4103;DHT22;2065;49.790;9.620;2023-04-25T04:17:09;13.20;60.60
4103;DHT22;2065;49.790;9.620;2023-04-25T04:19:36;13.00;60.70
4103;DHT22;2065;49.790;9.620;2023-04-25T04:22:08;13.10;61.10
4103;DHT22;2065;49.790;9.620;2023-04-25T04:24:36;13.10;60.70
4103;DHT22;2065;49.790;9.620;2023-04-25T04:27:06;13.10;61.20
4103;DHT22;2065;49.790;9.620;2023-04-25T04:29:37;13.20;60.60
4103;DHT22;2065;49.790;9.620;2023-04-25T04:32:18;13.00;60.30
4103;DHT22;2065;49.790;9.620;2023-04-25T04:34:45;13.10;60.50
4103;DHT22;2065;49.790;9.620;2023-04-25T04:37:15;13.00;60.60
4103;DHT22;2065;49.790;9.620;2023-04-25T04:39:43;13.10;60.10
4103;DHT22;2065;49.790;9.620;2023-04-25T04:42:22;13.10;60.70
4103;DHT22;2065;49.790;9.620;2023-04-25T04:45:15;13.40;60.20
4103;DHT22;2065;49.790;9.620;2023-04-25T04:47:42;13.50;60.00
4103;DHT22;2065;49.790;9.620;2023-04-25T04:50:33;13.60;59.90
4103;DHT22;2065;49.790;9.620;2023-04-25T04:53:20;13.60;59.10
4103;DHT22;2065;49.790;9.620;2023-04-25T04:56:06;13.40;59.00
4103;DHT22;2065;49.790;9.620;2023-04-25T04:58:55;13.30;59.60
4103;DHT22;2065;49.790;9.620;2023-04-25T05:01:50;13.30;59.50
4103;DHT22;2065;49.790;9.620;2023-04-25T05:04:25;13.30;59.80
4103;DHT22;2065;49.790;9.620;2023-04-25T05:07:02;13.40;60.10
4103;DHT22;2065;49.790;9.620;2023-04-25T05:09:42;13.30;59.80
4103;DHT22;2065;49.790;9.620;2023-04-25T05:12:28;13.30;60.00
4103;DHT22;2065;49.790;9.620;2023-04-25T05:15:15;13.20;60.40
4103;DHT22;2065;49.790;9.620;2023-04-25T05:17:59;13.10;59.80
4103;DHT22;2065;49.790;9.620;2023-04-25T05:20:52;13.00;60.20
4103;DHT22;2065;49.790;9.620;2023-04-25T05:23:20;12.80;60.40
4103;DHT22;2065;49.790;9.620;2023-04-25T05:26:05;12.90;61.10
4103;DHT22;2065;49.790;9.620;2023-04-25T05:28:50;13.20;60.50
4103;DHT22;2065;49.790;9.620;2023-04-25T05:31:36;13.40;59.70
4103;DHT22;2065;49.790;9.620;2023-04-25T05:34:14;13.30;59.50
4103;DHT22;2065;49.790;9.620;2023-04-25T05:36:56;13.20;59.90
4103;DHT22;2065;49.790;9.620;2023-04-25T05:39:24;13.20;59.40
4103;DHT22;2065;49.790;9.620;2023-04-25T05:41:51;13.40;59.00
4103;DHT22;2065;49.790;9.620;2023-04-25T05:44:45;13.30;59.40
4103;DHT22;2065;49.790;9.620;2023-04-25T05:47:36;13.40;59.60
4103;DHT22;2065;49.790;9.620;2023-04-25T05:50:09;13.50;59.20
4103;DHT22;2065;49.790;9.620;2023-04-25T05:53:02;13.50;59.10
4103;DHT22;2065;49.790;9.620;2023-04-25T05:55:38;13.60;59.40
4103;DHT22;2065;49.790;9.620;2023-04-25T05:58:19;13.40;59.10
4103;DHT22;2065;49.790;9.620;2023-04-25T06:00:46;13.40;59.90
4103;DHT22;2065;49.790;9.620;2023-04-25T06:03:13;13.50;59.80
4103;DHT22;2065;49.790;9.620;2023-04-25T06:05:43;13.40;59.80
4103;DHT22;2065;49.790;9.620;2023-04-25T06:08:10;13.30;59.40
4103;DHT22;2065;49.790;9.620;2023-04-25T06:10:38;13.30;59.50
4103;DHT22;2065;49.790;9.620;2023-04-25T06:13:05;13.30;59.50
4103;DHT22;2065;49.790;9.620;2023-04-25T06:15:34;13.40;59.90
4103;DHT22;2065;49.790;9.620;2023-04-25T06:18:01;13.60;59.80
4103;DHT22;2065;49.790;9.620;2023-04-25T06:20:29;13.40;59.50
4103;DHT22;2065;49.790;9.620;2023-04-25T06:23:00;13.50;60.90
4103;DHT22;2065;49.790;9.620;2023-04-25T06:25:45;13.60;59.90
4103;DHT22;2065;49.790;9.620;2023-04-25T06:28:12;13.70;58.80
4103;DHT22;2065;49.790;9.620;2023-04-25T06:30:40;13.80;58.60
4103;DHT22;2065;49.790;9.620;2023-04-25T06:33:11;13.60;57.10
4103;DHT22;2065;49.790;9.620;2023-04-25T06:35:42;13.40;57.20
4103;DHT22;2065;49.790;9.620;2023-04-25T06:38:13;13.20;55.40
4103;DHT22;2065;49.790;9.620;2023-04-25T06:40:45;13.30;55.50
4103;DHT22;2065;49.790;9.620;2023-04-25T06:43:13;13.40;55.80
4103;DHT22;2065;49.790;9.620;2023-04-25T06:45:55;13.20;54.20
4103;DHT22;2065;49.790;9.620;2023-04-25T06:48:25;12.90;54.90
4103;DHT22;2065;49.790;9.620;2023-04-25T06:50:54;12.80;55.60
4103;DHT22;2065;49.790;9.620;2023-04-25T06:53:24;12.60;53.90
4103;DHT22;2065;49.790;9.620;2023-04-25T06:55:57;12.60;56.30
4103;DHT22;2065;49.790;9.620;2023-04-25T06:58:29;12.90;56.90
4103;DHT22;2065;49.790;9.620;2023-04-25T07:01:08;13.00;54.10
4103;DHT22;2065;49.790;9.620;2023-04-25T07:03:35;13.00;55.10
4103;DHT22;2065;49.790;9.620;2023-04-25T07:06:07;13.10;54.20
4103;DHT22;2065;49.790;9.620;2023-04-25T07:08:36;13.00;52.00
4103;DHT22;2065;49.790;9.620;2023-04-25T07:11:03;12.90;52.60
4103;DHT22;2065;49.790;9.620;2023-04-25T07:13:31;12.90;53.60
4103;DHT22;2065;49.790;9.620;2023-04-25T07:15:58;13.10;53.00
4103;DHT22;2065;49.790;9.620;2023-04-25T07:18:28;13.10;52.60
4103;DHT22;2065;49.790;9.620;2023-04-25T07:20:55;13.20;52.40
4103;DHT22;2065;49.790;9.620;2023-04-25T07:23:23;13.30;52.30
4103;DHT22;2065;49.790;9.620;2023-04-25T07:25:51;13.40;52.60
4103;DHT22;2065;49.790;9.620;2023-04-25T07:28:21;13.50;51.40
4103;DHT22;2065;49.790;9.620;2023-04-25T07:30:48;13.60;51.00
4103;DHT22;2065;49.790;9.620;2023-04-25T07:33:15;13.70;51.20
4103;DHT22;2065;49.790;9.620;2023-04-25T07:35:43;13.40;49.00
4103;DHT22;2065;49.790;9.620;2023-04-25T07:38:10;13.40;50.00
4103;DHT22;2065;49.790;9.620;2023-04-25T07:40:38;13.30;50.20
4103;DHT22;2065;49.790;9.620;2023-04-25T07:43:09;13.40;49.20
4103;DHT22;2065;49.790;9.620;2023-04-25T07:45:54;13.40;49.10
4103;DHT22;2065;49.790;9.620;2023-04-25T07:48:21;13.60;51.10
4103;DHT22;2065;49.790;9.620;2023-04-25T07:50:51;13.70;49.30
4103;DHT22;2065;49.790;9.620;2023-04-25T07:53:18;13.70;48.40
4103;DHT22;2065;49.790;9.620;2023-04-25T07:56:00;13.70;49.50
4103;DHT22;2065;49.790;9.620;2023-04-25T07:58:32;13.60;48.50
4103;DHT22;2065;49.790;9.620;2023-04-25T08:01:02;13.80;50.70
4103;DHT22;2065;49.790;9.620;2023-04-25T08:03:35;13.70;47.70
4103;DHT22;2065;49.790;9.620;2023-04-25T08:06:05;13.80;48.90
4103;DHT22;2065;49.790;9.620;2023-04-25T08:08:38;13.90;48.30
4103;DHT22;2065;49.790;9.620;2023-04-25T08:11:09;14.10;48.00
4103;DHT22;2065;49.790;9.620;2023-04-25T08:13:37;14.30;48.00
4103;DHT22;2065;49.790;9.620;2023-04-25T08:16:07;14.40;48.00
4103;DHT22;2065;49.790;9.620;2023-04-25T08:18:35;14.70;47.40
4103;DHT22;2065;49.790;9.620;2023-04-25T08:21:02;14.90;47.00
4103;DHT22;2065;49.790;9.620;2023-04-25T08:23:29;14.90;46.20
4103;DHT22;2065;49.790;9.620;2023-04-25T08:26:03;14.60;43.60
4103;DHT22;2065;49.790;9.620;2023-04-25T08:28:33;14.30;43.30
4103;DHT22;2065;49.790;9.620;2023-04-25T08:31:03;14.20;42.60
4103;DHT22;2065;49.790;9.620;2023-04-25T08:33:38;14.20;42.70
4103;DHT22;2065;49.790;9.620;2023-04-25T08:36:27;14.20;44.80
4103;DHT22;2065;49.790;9.620;2023-04-25T08:38:55;14.40;43.90
4103;DHT22;2065;49.790;9.620;2023-04-25T08:41:22;14.40;43.40
4103;DHT22;2065;49.790;9.620;2023-04-25T08:43:49;14.70;43.60
4103;DHT22;2065;49.790;9.620;2023-04-25T08:46:19;14.90;43.30
4103;DHT22;2065;49.790;9.620;2023-04-25T08:49:16;14.90;41.70
4103;DHT22;2065;49.790;9.620;2023-04-25T08:51:45;15.20;42.50
4103;DHT22;2065;49.790;9.620;2023-04-25T08:54:15;15.40;42.90
4103;DHT22;2065;49.790;9.620;2023-04-25T08:56:45;15.20;42.30
4103;DHT22;2065;49.790;9.620;2023-04-25T08:59:13;15.10;42.90
4103;DHT22;2065;49.790;9.620;2023-04-25T09:01:45;15.20;43.40
4103;DHT22;2065;49.790;9.620;2023-04-25T09:04:12;15.20;41.60
4103;DHT22;2065;49.790;9.620;2023-04-25T09:06:40;15.30;43.00
4103;DHT22;2065;49.790;9.620;2023-04-25T09:09:08;15.40;41.60
4103;DHT22;2065;49.790;9.620;2023-04-25T09:11:36;15.10;40.30
4103;DHT22;2065;49.790;9.620;2023-04-25T09:14:13;15.00;42.50
4103;DHT22;2065;49.790;9.620;2023-04-25T09:17:01;15.00;42.50
4103;DHT22;2065;49.790;9.620;2023-04-25T09:19:50;15.10;43.10
4103;DHT22;2065;49.790;9.620;2023-04-25T09:22:24;14.80;43.00
4103;DHT22;2065;49.790;9.620;2023-04-25T09:24:52;14.80;41.80
4103;DHT22;2065;49.790;9.620;2023-04-25T09:27:22;14.40;40.70
4103;DHT22;2065;49.790;9.620;2023-04-25T09:29:57;14.30;42.20
4103;DHT22;2065;49.790;9.620;2023-04-25T09:32:27;14.10;42.40
4103;DHT22;2065;49.790;9.620;2023-04-25T09:34:57;14.30;44.40
4103;DHT22;2065;49.790;9.620;2023-04-25T09:37:27;14.70;42.90
4103;DHT22;2065;49.790;9.620;2023-04-25T09:40:13;15.10;42.60
4103;DHT22;2065;49.790;9.620;2023-04-25T09:42:54;15.10;43.20
4103;DHT22;2065;49.790;9.620;2023-04-25T09:45:24;15.20;43.30
4103;DHT22;2065;49.790;9.620;2023-04-25T09:47:55;15.50;42.30
4103;DHT22;2065;49.790;9.620;2023-04-25T09:50:26;15.70;40.80
4103;DHT22;2065;49.790;9.620;2023-04-25T09:53:04;15.50;43.20
4103;DHT22;2065;49.790;9.620;2023-04-25T09:55:47;15.70;43.20
4103;DHT22;2065;49.790;9.620;2023-04-25T09:58:14;16.10;42.90
4103;DHT22;2065;49.790;9.620;2023-04-25T10:00:42;16.60;42.80
4103;DHT22;2065;49.790;9.620;2023-04-25T10:03:25;16.70;38.60
4103;DHT22;2065;49.790;9.620;2023-04-25T10:06:16;16.40;39.50
4103;DHT22;2065;49.790;9.620;2023-04-25T10:08:50;16.50;39.70
4103;DHT22;2065;49.790;9.620;2023-04-25T10:11:18;16.40;39.90
4103;DHT22;2065;49.790;9.620;2023-04-25T10:13:45;16.30;40.80
4103;DHT22;2065;49.790;9.620;2023-04-25T10:16:13;16.30;41.50
4103;DHT22;2065;49.790;9.620;2023-04-25T10:18:43;16.50;41.50
4103;DHT22;2065;49.790;9.620;2023-04-25T10:21:10;16.90;42.60
4103;DHT22;2065;49.790;9.620;2023-04-25T10:23:38;17.40;41.00
4103;DHT22;2065;49.790;9.620;2023-04-25T10:26:05;17.50;38.10
4103;DHT22;2065;49.790;9.620;2023-04-25T10:28:56;17.70;38.50
4103;DHT22;2065;49.790;9.620;2023-04-25T10:31:24;17.80;38.00
4103;DHT22;2065;49.790;9.620;2023-04-25T10:33:53;17.60;37.80
4103;DHT22;2065;49.790;9.620;2023-04-25T10:36:22;17.20;37.80
4103;DHT22;2065;49.790;9.620;2023-04-25T10:38:50;17.00;38.50
4103;DHT22;2065;49.790;9.620;2023-04-25T10:41:18;16.60;38.70
4103;DHT22;2065;49.790;9.620;2023-04-25T10:43:46;16.20;39.70
4103;DHT22;2065;49.790;9.620;2023-04-25T10:46:15;16.10;40.90
4103;DHT22;2065;49.790;9.620;2023-04-25T10:48:50;16.10;40.20
4103;DHT22;2065;49.790;9.620;2023-04-25T10:51:21;16.10;41.00
4103;DHT22;2065;49.790;9.620;2023-04-25T10:53:58;16.10;39.80
4103;DHT22;2065;49.790;9.620;2023-04-25T10:56:27;16.00;40.20
4103;DHT22;2065;49.790;9.620;2023-04-25T10:59:08;16.00;38.70
4103;DHT22;2065;49.790;9.620;2023-04-25T11:01:37;15.80;39.60
4103;DHT22;2065;49.790;9.620;2023-04-25T11:04:05;15.80;40.20
4103;DHT22;2065;49.790;9.620;2023-04-25T11:06:44;15.70;39.00
4103;DHT22;2065;49.790;9.620;2023-04-25T11:09:14;15.40;38.90
4103;DHT22;2065;49.790;9.620;2023-04-25T11:11:41;15.20;41.80
4103;DHT22;2065;49.790;9.620;2023-04-25T11:14:08;15.20;41.40
4103;DHT22;2065;49.790;9.620;2023-04-25T11:16:35;15.30;41.70
4103;DHT22;2065;49.790;9.620;2023-04-25T11:19:03;15.40;42.10
4103;DHT22;2065;49.790;9.620;2023-04-25T11:21:31;15.70;42.10
4103;DHT22;2065;49.790;9.620;2023-04-25T11:23:59;15.90;41.60
4103;DHT22;2065;49.790;9.620;2023-04-25T11:26:27;15.90;43.30
4103;DHT22;2065;49.790;9.620;2023-04-25T11:28:57;16.20;40.40
4103;DHT22;2065;49.790;9.620;2023-04-25T11:31:25;16.20;40.80
4103;DHT22;2065;49.790;9.620;2023-04-25T11:33:53;15.90;39.40
4103;DHT22;2065;49.790;9.620;2023-04-25T11:36:22;15.90;40.50
4103;DHT22;2065;49.790;9.620;2023-04-25T11:38:50;15.90;39.70
4103;DHT22;2065;49.790;9.620;2023-04-25T11:41:18;16.00;41.50
4103;DHT22;2065;49.790;9.620;2023-04-25T11:43:46;15.50;40.70
4103;DHT22;2065;49.790;9.620;2023-04-25T11:46:13;15.70;42.20
4103;DHT22;2065;49.790;9.620;2023-04-25T11:48:40;16.00;40.90
4103;DHT22;2065;49.790;9.620;2023-04-25T11:51:08;16.10;40.30
4103;DHT22;2065;49.790;9.620;2023-04-25T11:53:35;16.00;40.50
4103;DHT22;2065;49.790;9.620;2023-04-25T11:56:09;16.20;41.10
4103;DHT22;2065;49.790;9.620;2023-04-25T11:58:56;16.50;39.80
4103;DHT22;2065;49.790;9.620;2023-04-25T12:01:30;16.30;40.30
4103;DHT22;2065;49.790;9.620;2023-04-25T12:03:58;16.30;41.20
4103;DHT22;2065;49.790;9.620;2023-04-25T12:06:28;16.30;39.80
4103;DHT22;2065;49.790;9.620;2023-04-25T12:09:02;16.20;40.40
4103;DHT22;2065;49.790;9.620;2023-04-25T12:11:30;15.90;39.80
4103;DHT22;2065;49.790;9.620;2023-04-25T12:14:03;15.70;39.60
4103;DHT22;2065;49.790;9.620;2023-04-25T12:16:40;15.50;41.30
4103;DHT22;2065;49.790;9.620;2023-04-25T12:19:08;15.60;41.50
4103;DHT22;2065;49.790;9.620;2023-04-25T12:21:35;15.50;42.60
4103;DHT22;2065;49.790;9.620;2023-04-25T12:24:10;15.40;42.20
4103;DHT22;2065;49.790;9.620;2023-04-25T12:26:48;15.50;41.80
4103;DHT22;2065;49.790;9.620;2023-04-25T12:29:19;15.40;42.00
4103;DHT22;2065;49.790;9.620;2023-04-25T12:31:46;15.30;41.50
4103;DHT22;2065;49.790;9.620;2023-04-25T12:34:13;15.10;42.20
4103;DHT22;2065;49.790;9.620;2023-04-25T12:36:40;15.20;43.50
4103;DHT22;2065;49.790;9.620;2023-04-25T12:39:07;15.50;42.40
4103;DHT22;2065;49.790;9.620;2023-04-25T12:41:35;15.50;42.50
4103;DHT22;2065;49.790;9.620;2023-04-25T12:44:03;15.30;42.20
4103;DHT22;2065;49.790;9.620;2023-04-25T12:46:32;15.40;44.00
4103;DHT22;2065;49.790;9.620;2023-04-25T12:48:59;15.40;42.90
4103;DHT22;2065;49.790;9.620;2023-04-25T12:51:26;15.10;42.80
4103;DHT22;2065;49.790;9.620;2023-04-25T12:53:53;15.00;43.60
4103;DHT22;2065;49.790;9.620;2023-04-25T12:56:20;14.80;45.20
4103;DHT22;2065;49.790;9.620;2023-04-25T12:58:47;15.00;45.20
4103;DHT22;2065;49.790;9.620;2023-04-25T13:01:14;15.20;44.50
4103;DHT22;2065;49.790;9.620;2023-04-25T13:03:43;15.00;43.10
4103;DHT22;2065;49.790;9.620;2023-04-25T13:06:10;15.20;44.50
4103;DHT22;2065;49.790;9.620;2023-04-25T13:08:38;15.50;43.00
4103;DHT22;2065;49.790;9.620;2023-04-25T13:11:07;15.60;43.00
4103;DHT22;2065;49.790;9.620;2023-04-25T13:13:34;15.90;43.10
4103;DHT22;2065;49.790;9.620;2023-04-25T13:16:01;15.90;41.20
4103;DHT22;2065;49.790;9.620;2023-04-25T13:18:28;15.90;41.80
4103;DHT22;2065;49.790;9.620;2023-04-25T13:20:57;15.50;42.80
4103;DHT22;2065;49.790;9.620;2023-04-25T13:23:26;15.60;41.70
4103;DHT22;2065;49.790;9.620;2023-04-25T13:25:54;15.50;42.00
4103;DHT22;2065;49.790;9.620;2023-04-25T13:28:23;15.40;42.00
4103;DHT22;2065;49.790;9.620;2023-04-25T13:30:50;15.50;41.30
4103;DHT22;2065;49.790;9.620;2023-04-25T13:33:17;15.30;42.20
4103;DHT22;2065;49.790;9.620;2023-04-25T13:35:44;15.20;41.80
4103;DHT22;2065;49.790;9.620;2023-04-25T13:38:14;14.90;41.00
4103;DHT22;2065;49.790;9.620;2023-04-25T13:40:40;14.90;41.20
4103;DHT22;2065;49.790;9.620;2023-04-25T13:43:07;14.70;42.10
4103;DHT22;2065;49.790;9.620;2023-04-25T13:45:34;14.70;42.60
4103;DHT22;2065;49.790;9.620;2023-04-25T13:48:02;14.80;42.40
4103;DHT22;2065;49.790;9.620;2023-04-25T13:50:29;14.90;42.50
4103;DHT22;2065;49.790;9.620;2023-04-25T13:52:57;14.90;41.70
4103;DHT22;2065;49.790;9.620;2023-04-25T13:55:26;14.80;43.30
4103;DHT22;2065;49.790;9.620;2023-04-25T13:57:53;15.00;41.50
4103;DHT22;2065;49.790;9.620;2023-04-25T14:00:20;15.20;41.80
4103;DHT22;2065;49.790;9.620;2023-04-25T14:02:47;15.30;41.20
4103;DHT22;2065;49.790;9.620;2023-04-25T14:05:15;15.40;41.80
4103;DHT22;2065;49.790;9.620;2023-04-25T14:07:42;15.50;40.50
4103;DHT22;2065;49.790;9.620;2023-04-25T14:10:09;15.30;39.80
4103;DHT22;2065;49.790;9.620;2023-04-25T14:12:38;15.20;40.90
4103;DHT22;2065;49.790;9.620;2023-04-25T14:15:06;15.40;40.30
4103;DHT22;2065;49.790;9.620;2023-04-25T14:17:33;15.40;39.90
4103;DHT22;2065;49.790;9.620;2023-04-25T14:20:00;15.30;40.80
4103;DHT22;2065;49.790;9.620;2023-04-25T14:22:27;15.40;40.60
4103;DHT22;2065;49.790;9.620;2023-04-25T14:24:55;15.40;40.20
4103;DHT22;2065;49.790;9.620;2023-04-25T14:27:21;15.40;39.30
4103;DHT22;2065;49.790;9.620;2023-04-25T14:29:50;15.50;40.50
4103;DHT22;2065;49.790;9.620;2023-04-25T14:32:17;15.70;41.40
4103;DHT22;2065;49.790;9.620;2023-04-25T14:34:44;15.90;41.30
4103;DHT22;2065;49.790;9.620;2023-04-25T14:37:11;15.80;39.40
4103;DHT22;2065;49.790;9.620;2023-04-25T14:39:38;15.60;41.00
4103;DHT22;2065;49.790;9.620;2023-04-25T14:42:06;15.60;40.60
4103;DHT22;2065;49.790;9.620;2023-04-25T14:44:33;15.50;41.20
4103;DHT22;2065;49.790;9.620;2023-04-25T14:47:01;15.60;40.80
4103;DHT22;2065;49.790;9.620;2023-04-25T14:49:28;15.70;40.20
4103;DHT22;2065;49.790;9.620;2023-04-25T14:51:55;15.80;40.60
4103;DHT22;2065;49.790;9.620;2023-04-25T14:54:22;15.80;40.80
4103;DHT22;2065;49.790;9.620;2023-04-25T14:56:49;15.70;39.10
4103;DHT22;2065;49.790;9.620;2023-04-25T14:59:17;15.60;40.00
4103;DHT22;2065;49.790;9.620;2023-04-25T15:01:44;15.50;40.10
4103;DHT22;2065;49.790;9.620;2023-04-25T15:04:12;15.60;39.80
4103;DHT22;2065;49.790;9.620;2023-04-25T15:06:39;15.60;40.90
4103;DHT22;2065;49.790;9.620;2023-04-25T15:09:07;15.80;39.60
4103;DHT22;2065;49.790;9.620;2023-04-25T15:11:34;15.70;39.40
4103;DHT22;2065;49.790;9.620;2023-04-25T15:14:01;15.80;38.90
4103;DHT22;2065;49.790;9.620;2023-04-25T15:16:28;15.90;40.00
4103;DHT22;2065;49.790;9.620;2023-04-25T15:18:56;15.80;37.50
4103;DHT22;2065;49.790;9.620;2023-04-25T15:21:24;15.90;38.60
4103;DHT22;2065;49.790;9.620;2023-04-25T15:23:52;15.80;38.30
4103;DHT22;2065;49.790;9.620;2023-04-25T15:26:19;16.00;38.50
4103;DHT22;2065;49.790;9.620;2023-04-25T15:28:46;15.90;38.30
4103;DHT22;2065;49.790;9.620;2023-04-25T15:31:14;15.60;38.80
4103;DHT22;2065;49.790;9.620;2023-04-25T15:33:41;15.60;38.70
4103;DHT22;2065;49.790;9.620;2023-04-25T15:36:08;15.60;39.10
4103;DHT22;2065;49.790;9.620;2023-04-25T15:38:37;15.60;37.80
4103;DHT22;2065;49.790;9.620;2023-04-25T15:41:04;15.70;37.70
4103;DHT22;2065;49.790;9.620;2023-04-25T15:43:32;15.80;38.40
4103;DHT22;2065;49.790;9.620;2023-04-25T15:46:01;15.70;37.10
4103;DHT22;2065;49.790;9.620;2023-04-25T15:48:28;15.70;37.90
4103;DHT22;2065;49.790;9.620;2023-04-25T15:50:57;15.40;38.50
4103;DHT22;2065;49.790;9.620;2023-04-25T15:53:24;15.50;38.80
4103;DHT22;2065;49.790;9.620;2023-04-25T15:55:52;15.60;38.50
4103;DHT22;2065;49.790;9.620;2023-04-25T15:58:20;15.80;38.60
4103;DHT22;2065;49.790;9.620;2023-04-25T16:00:47;15.90;39.30
4103;DHT22;2065;49.790;9.620;2023-04-25T16:03:16;15.70;38.50
4103;DHT22;2065;49.790;9.620;2023-04-25T16:05:43;15.80;37.70
4103;DHT22;2065;49.790;9.620;2023-04-25T16:08:10;15.70;38.40
4103;DHT22;2065;49.790;9.620;2023-04-25T16:10:37;15.60;39.90
4103;DHT22;2065;49.790;9.620;2023-04-25T16:13:05;15.50;38.70
4103;DHT22;2065;49.790;9.620;2023-04-25T16:15:32;15.70;39.20
4103;DHT22;2065;49.790;9.620;2023-04-25T16:18:00;15.80;39.30
4103;DHT22;2065;49.790;9.620;2023-04-25T16:20:27;15.70;38.70
4103;DHT22;2065;49.790;9.620;2023-04-25T16:22:54;15.40;39.40